FIN8PH EFHK-EHAM
Flight info
| Callsign | FIN8PH |
|---|---|
| Flight time | N/A |
| Altitude | 40000 |
| Route | NUNTO Y369 REKDO DCT KOSKA DCT KOPIM N872 DEMIR DCT WANZA N872 OGFON DCT KUBAT T200 BLUFA |
| Aircraft | A359/H-SDE2E3GHIJ3J4J5LM1ORWXY/LB1D1 |
Departure
| Time | N/A |
|---|---|
| Airport | Helsinki Vantaa Airport (EFHK) |
Arrival
| Time | 2026-05-04 15:19 |
|---|---|
| Airport | Amsterdam Airport Schiphol (EHAM) |
| Time | Latitude | Longitude | Altitude | Speed | Heading |
|---|---|---|---|---|---|
| 2026-05-04 14:24 | 54.41599 | 8.84298 | 40000 ft | 461 kts | 235° |
| 2026-05-04 14:25 | 54.37204 | 8.73975 | 40007 ft | 461 kts | 235° |
| 2026-05-04 14:25 | 54.31515 | 8.60674 | 40012 ft | 461 kts | 234° |
| 2026-05-04 14:26 | 54.28353 | 8.53312 | 40007 ft | 461 kts | 234° |
| 2026-05-04 14:26 | 54.24551 | 8.44489 | 40012 ft | 461 kts | 234° |
| 2026-05-04 14:27 | 54.20306 | 8.36265 | 40015 ft | 462 kts | 226° |
| 2026-05-04 14:27 | 54.15675 | 8.28640 | 40013 ft | 463 kts | 225° |
| 2026-05-04 14:28 | 54.10991 | 8.21125 | 40011 ft | 462 kts | 225° |
| 2026-05-04 14:28 | 54.06300 | 8.13598 | 40012 ft | 462 kts | 225° |
| 2026-05-04 14:29 | 53.96970 | 7.98620 | 40012 ft | 462 kts | 225° |
| 2026-05-04 14:30 | 53.92288 | 7.91135 | 40011 ft | 462 kts | 225° |
| 2026-05-04 14:31 | 53.85259 | 7.79941 | 40010 ft | 462 kts | 225° |
| 2026-05-04 14:32 | 53.75871 | 7.65077 | 40012 ft | 461 kts | 224° |
| 2026-05-04 14:32 | 53.71176 | 7.57679 | 40012 ft | 461 kts | 224° |
| 2026-05-04 14:33 | 53.66480 | 7.50302 | 40009 ft | 461 kts | 224° |
| 2026-05-04 14:33 | 53.61801 | 7.42976 | 40021 ft | 461 kts | 224° |
| 2026-05-04 14:34 | 53.57090 | 7.35624 | 40018 ft | 461 kts | 224° |
| 2026-05-04 14:34 | 53.52376 | 7.28289 | 39981 ft | 461 kts | 224° |
| 2026-05-04 14:34 | 53.50029 | 7.24646 | 39769 ft | 460 kts | 224° |
| 2026-05-04 14:35 | 53.47675 | 7.20999 | 39385 ft | 458 kts | 224° |
| 2026-05-04 14:35 | 53.45335 | 7.17379 | 38816 ft | 457 kts | 224° |
| 2026-05-04 14:35 | 53.42998 | 7.13769 | 38072 ft | 457 kts | 224° |
| 2026-05-04 14:35 | 53.40665 | 7.10172 | 37394 ft | 456 kts | 224° |
| 2026-05-04 14:36 | 53.38368 | 7.06637 | 36949 ft | 450 kts | 224° |
| 2026-05-04 14:36 | 53.36069 | 7.03104 | 36341 ft | 448 kts | 225° |
| 2026-05-04 14:36 | 53.33779 | 6.99587 | 35659 ft | 447 kts | 225° |
| 2026-05-04 14:36 | 53.31437 | 6.96163 | 34996 ft | 447 kts | 221° |
| 2026-05-04 14:37 | 53.28994 | 6.92953 | 34241 ft | 447 kts | 220° |
| 2026-05-04 14:37 | 53.26529 | 6.89744 | 33398 ft | 447 kts | 221° |
| 2026-05-04 14:37 | 53.24091 | 6.86542 | 32523 ft | 446 kts | 221° |
| 2026-05-04 14:37 | 53.21661 | 6.83333 | 31635 ft | 446 kts | 220° |
| 2026-05-04 14:38 | 53.19238 | 6.80125 | 30755 ft | 445 kts | 220° |
| 2026-05-04 14:38 | 53.16819 | 6.76921 | 29826 ft | 445 kts | 220° |
| 2026-05-04 14:38 | 53.14384 | 6.73701 | 28832 ft | 445 kts | 220° |
| 2026-05-04 14:38 | 53.11977 | 6.70522 | 28188 ft | 439 kts | 220° |
| 2026-05-04 14:39 | 53.09603 | 6.67389 | 27572 ft | 432 kts | 220° |
| 2026-05-04 14:39 | 53.07276 | 6.64320 | 26942 ft | 428 kts | 220° |
| 2026-05-04 14:39 | 53.05029 | 6.61359 | 26320 ft | 423 kts | 221° |
| 2026-05-04 14:40 | 53.01984 | 6.57353 | 25498 ft | 419 kts | 221° |
| 2026-05-04 14:40 | 52.99711 | 6.54366 | 24870 ft | 416 kts | 221° |
| 2026-05-04 14:40 | 52.97447 | 6.51396 | 24259 ft | 413 kts | 221° |
| 2026-05-04 14:40 | 52.95196 | 6.48446 | 23631 ft | 411 kts | 221° |
| 2026-05-04 14:41 | 52.92956 | 6.45512 | 22952 ft | 409 kts | 221° |
| 2026-05-04 14:41 | 52.90735 | 6.42607 | 22324 ft | 405 kts | 221° |
| 2026-05-04 14:41 | 52.86371 | 6.36913 | 21103 ft | 399 kts | 220° |
| 2026-05-04 14:42 | 52.82450 | 6.30596 | 19902 ft | 391 kts | 235° |
| 2026-05-04 14:42 | 52.80885 | 6.26917 | 19264 ft | 389 kts | 236° |
| 2026-05-04 14:42 | 52.79352 | 6.23228 | 18658 ft | 389 kts | 236° |
| 2026-05-04 14:43 | 52.77818 | 6.19555 | 17999 ft | 389 kts | 236° |
| 2026-05-04 14:43 | 52.76280 | 6.15890 | 17329 ft | 387 kts | 236° |
| 2026-05-04 14:43 | 52.74749 | 6.12255 | 16694 ft | 386 kts | 236° |
| 2026-05-04 14:43 | 52.73213 | 6.08617 | 16045 ft | 385 kts | 236° |
| 2026-05-04 14:44 | 52.71685 | 6.05005 | 15401 ft | 384 kts | 236° |
| 2026-05-04 14:44 | 52.70153 | 6.01389 | 14756 ft | 383 kts | 236° |
| 2026-05-04 14:44 | 52.68628 | 5.97797 | 14100 ft | 382 kts | 236° |
| 2026-05-04 14:44 | 52.67113 | 5.94215 | 13413 ft | 381 kts | 236° |
| 2026-05-04 14:45 | 52.65604 | 5.90619 | 12721 ft | 378 kts | 236° |
| 2026-05-04 14:45 | 52.64098 | 5.87104 | 12072 ft | 375 kts | 235° |
| 2026-05-04 14:45 | 52.62628 | 5.83680 | 11712 ft | 364 kts | 235° |
| 2026-05-04 14:45 | 52.61204 | 5.80362 | 11577 ft | 347 kts | 235° |
| 2026-05-04 14:46 | 52.59845 | 5.77196 | 11442 ft | 331 kts | 235° |
| 2026-05-04 14:46 | 52.58551 | 5.74178 | 11306 ft | 316 kts | 235° |
| 2026-05-04 14:46 | 52.57307 | 5.71282 | 11193 ft | 303 kts | 235° |
| 2026-05-04 14:46 | 52.56117 | 5.68512 | 11041 ft | 291 kts | 235° |
| 2026-05-04 14:47 | 52.54969 | 5.65842 | 10923 ft | 280 kts | 235° |
| 2026-05-04 14:47 | 52.53858 | 5.63262 | 10745 ft | 274 kts | 235° |
| 2026-05-04 14:47 | 52.52763 | 5.60718 | 10442 ft | 273 kts | 235° |
| 2026-05-04 14:47 | 52.51675 | 5.58159 | 10122 ft | 273 kts | 236° |
| 2026-05-04 14:48 | 52.50857 | 5.55366 | 9878 ft | 272 kts | 251° |
| 2026-05-04 14:48 | 52.50308 | 5.52330 | 9719 ft | 281 kts | 254° |
| 2026-05-04 14:48 | 52.49788 | 5.49236 | 9550 ft | 282 kts | 254° |
| 2026-05-04 14:48 | 52.49263 | 5.46133 | 9369 ft | 281 kts | 254° |
| 2026-05-04 14:49 | 52.48737 | 5.43046 | 9198 ft | 281 kts | 253° |
| 2026-05-04 14:49 | 52.48208 | 5.39957 | 9026 ft | 280 kts | 253° |
| 2026-05-04 14:49 | 52.47680 | 5.36892 | 8856 ft | 279 kts | 253° |
| 2026-05-04 14:49 | 52.47168 | 5.33930 | 8672 ft | 279 kts | 253° |
| 2026-05-04 14:50 | 52.46640 | 5.30879 | 8522 ft | 278 kts | 253° |
| 2026-05-04 14:50 | 52.46112 | 5.27838 | 8345 ft | 277 kts | 253° |
| 2026-05-04 14:50 | 52.45578 | 5.24761 | 8173 ft | 277 kts | 253° |
| 2026-05-04 14:50 | 52.45057 | 5.21771 | 8008 ft | 276 kts | 253° |
| 2026-05-04 14:51 | 52.44531 | 5.18756 | 7835 ft | 275 kts | 253° |
| 2026-05-04 14:51 | 52.44004 | 5.15738 | 7666 ft | 274 kts | 253° |
| 2026-05-04 14:51 | 52.43478 | 5.12735 | 7495 ft | 274 kts | 253° |
| 2026-05-04 14:51 | 52.42957 | 5.09761 | 7329 ft | 270 kts | 253° |
| 2026-05-04 14:52 | 52.42509 | 5.07209 | 7187 ft | 261 kts | 253° |
| 2026-05-04 14:52 | 52.42032 | 5.04494 | 7027 ft | 252 kts | 253° |
| 2026-05-04 14:52 | 52.41579 | 5.01919 | 6968 ft | 240 kts | 253° |
| 2026-05-04 14:52 | 52.41121 | 4.99324 | 6975 ft | 254 kts | 253° |
| 2026-05-04 14:53 | 52.40625 | 4.96516 | 6968 ft | 253 kts | 253° |
| 2026-05-04 14:53 | 52.40179 | 4.93992 | 6959 ft | 240 kts | 253° |
| 2026-05-04 14:53 | 52.39723 | 4.91425 | 6961 ft | 232 kts | 253° |
| 2026-05-04 14:53 | 52.39296 | 4.89018 | 6837 ft | 224 kts | 253° |
| 2026-05-04 14:54 | 52.38858 | 4.86551 | 6641 ft | 220 kts | 253° |
| 2026-05-04 14:54 | 52.38439 | 4.84201 | 6428 ft | 216 kts | 253° |
| 2026-05-04 14:54 | 52.38069 | 4.82120 | 6167 ft | 213 kts | 253° |
| 2026-05-04 14:54 | 52.37666 | 4.79861 | 5814 ft | 214 kts | 253° |
| 2026-05-04 14:55 | 52.37252 | 4.77542 | 5465 ft | 213 kts | 253° |
| 2026-05-04 14:55 | 52.36836 | 4.75221 | 5184 ft | 210 kts | 253° |
| 2026-05-04 14:55 | 52.36423 | 4.72910 | 5101 ft | 212 kts | 253° |
| 2026-05-04 14:55 | 52.36008 | 4.70597 | 5032 ft | 211 kts | 253° |
| 2026-05-04 14:56 | 52.35595 | 4.68293 | 4961 ft | 211 kts | 253° |
| 2026-05-04 14:56 | 52.35181 | 4.65989 | 4848 ft | 211 kts | 253° |
| 2026-05-04 14:56 | 52.34705 | 4.63736 | 4717 ft | 206 kts | 246° |
| 2026-05-04 14:56 | 52.34020 | 4.61741 | 4593 ft | 195 kts | 238° |
| 2026-05-04 14:57 | 52.33305 | 4.59905 | 4481 ft | 189 kts | 238° |
| 2026-05-04 14:57 | 52.32599 | 4.58096 | 4374 ft | 189 kts | 238° |
| 2026-05-04 14:57 | 52.31897 | 4.56286 | 4259 ft | 189 kts | 238° |
| 2026-05-04 14:57 | 52.31204 | 4.54496 | 4149 ft | 188 kts | 238° |
| 2026-05-04 14:58 | 52.30502 | 4.52684 | 4028 ft | 188 kts | 238° |
| 2026-05-04 14:58 | 52.29805 | 4.50880 | 3927 ft | 186 kts | 238° |
| 2026-05-04 14:58 | 52.29131 | 4.49142 | 3804 ft | 177 kts | 238° |
| 2026-05-04 14:58 | 52.28476 | 4.47451 | 3686 ft | 176 kts | 238° |
| 2026-05-04 14:59 | 52.27772 | 4.45825 | 3582 ft | 176 kts | 230° |
| 2026-05-04 14:59 | 52.26822 | 4.44550 | 3456 ft | 177 kts | 210° |
| 2026-05-04 14:59 | 52.24430 | 4.43997 | 3211 ft | 178 kts | 167° |
| 2026-05-04 15:00 | 52.23348 | 4.44720 | 3099 ft | 178 kts | 150° |
| 2026-05-04 15:00 | 52.22335 | 4.45836 | 2981 ft | 178 kts | 140° |
| 2026-05-04 15:00 | 52.21600 | 4.47310 | 2951 ft | 179 kts | 117° |
| 2026-05-04 15:01 | 52.20869 | 4.50994 | 2872 ft | 179 kts | 100° |
| 2026-05-04 15:01 | 52.20924 | 4.52898 | 2813 ft | 178 kts | 73° |
| 2026-05-04 15:01 | 52.21497 | 4.54652 | 2742 ft | 177 kts | 52° |
| 2026-05-04 15:01 | 52.22221 | 4.56254 | 2518 ft | 176 kts | 53° |
| 2026-05-04 15:02 | 52.22852 | 4.57926 | 2286 ft | 174 kts | 60° |
| 2026-05-04 15:02 | 52.23464 | 4.59602 | 2030 ft | 167 kts | 56° |
| 2026-05-04 15:02 | 52.24038 | 4.61053 | 1821 ft | 160 kts | 55° |
| 2026-05-04 15:02 | 52.24611 | 4.62543 | 1604 ft | 150 kts | 56° |
| 2026-05-04 15:03 | 52.25134 | 4.63915 | 1404 ft | 140 kts | 54° |
| 2026-05-04 15:03 | 52.25571 | 4.65049 | 1266 ft | 134 kts | 54° |
| 2026-05-04 15:03 | 52.26068 | 4.66337 | 1092 ft | 133 kts | 55° |
| 2026-05-04 15:03 | 52.26550 | 4.67593 | 897 ft | 135 kts | 54° |
| 2026-05-04 15:04 | 52.27007 | 4.68749 | 715 ft | 133 kts | 53° |
| 2026-05-04 15:04 | 52.27494 | 4.69984 | 531 ft | 132 kts | 55° |
| 2026-05-04 15:04 | 52.27941 | 4.71208 | 403 ft | 135 kts | 56° |
| 2026-05-04 15:04 | 52.28368 | 4.72360 | 217 ft | 140 kts | 55° |
| 2026-05-04 15:05 | 52.28855 | 4.73552 | 67 ft | 142 kts | 56° |
| 2026-05-04 15:05 | 52.29345 | 4.74865 | 23 ft | 139 kts | 50° |
| 2026-05-04 15:05 | 52.29827 | 4.76081 | 43 ft | 124 kts | 61° |
| 2026-05-04 15:05 | 52.30247 | 4.77381 | 459 ft | 132 kts | 66° |
| 2026-05-04 15:06 | 52.30596 | 4.78813 | 994 ft | 136 kts | 65° |
| 2026-05-04 15:06 | 52.30948 | 4.80279 | 1496 ft | 144 kts | 65° |
| 2026-05-04 15:06 | 52.31259 | 4.81890 | 1862 ft | 157 kts | 81° |
| 2026-05-04 15:07 | 52.30275 | 4.85166 | 2682 ft | 181 kts | 136° |
| 2026-05-04 15:07 | 52.29132 | 4.86263 | 2911 ft | 204 kts | 166° |
| 2026-05-04 15:07 | 52.27641 | 4.86501 | 3001 ft | 226 kts | 180° |
| 2026-05-04 15:07 | 52.26035 | 4.86460 | 2985 ft | 233 kts | 182° |
| 2026-05-04 15:08 | 52.24414 | 4.86382 | 2987 ft | 229 kts | 182° |
| 2026-05-04 15:08 | 52.22851 | 4.86304 | 2995 ft | 223 kts | 182° |
| 2026-05-04 15:08 | 52.21307 | 4.86228 | 2993 ft | 222 kts | 182° |
| 2026-05-04 15:08 | 52.19762 | 4.86152 | 2989 ft | 222 kts | 182° |
| 2026-05-04 15:09 | 52.18218 | 4.86073 | 2994 ft | 222 kts | 182° |
| 2026-05-04 15:09 | 52.16671 | 4.85992 | 2993 ft | 222 kts | 182° |
| 2026-05-04 15:09 | 52.15130 | 4.85912 | 2991 ft | 222 kts | 182° |
| 2026-05-04 15:10 | 52.12225 | 4.84702 | 2999 ft | 219 kts | 223° |
| 2026-05-04 15:10 | 52.11423 | 4.82652 | 3007 ft | 217 kts | 253° |
| 2026-05-04 15:10 | 52.10878 | 4.77864 | 3004 ft | 218 kts | 262° |
| 2026-05-04 15:11 | 52.10665 | 4.75417 | 3005 ft | 218 kts | 262° |
| 2026-05-04 15:11 | 52.10456 | 4.72972 | 2965 ft | 219 kts | 262° |
| 2026-05-04 15:11 | 52.10243 | 4.70491 | 2695 ft | 221 kts | 262° |
| 2026-05-04 15:11 | 52.10027 | 4.68036 | 2455 ft | 218 kts | 262° |
| 2026-05-04 15:12 | 52.10028 | 4.65597 | 2131 ft | 216 kts | 285° |
| 2026-05-04 15:12 | 52.10716 | 4.63489 | 2017 ft | 211 kts | 308° |
| 2026-05-04 15:12 | 52.11663 | 4.61655 | 2001 ft | 213 kts | 312° |
| 2026-05-04 15:12 | 52.12652 | 4.59860 | 1996 ft | 213 kts | 312° |
| 2026-05-04 15:13 | 52.13645 | 4.58069 | 1997 ft | 212 kts | 312° |
| 2026-05-04 15:13 | 52.14630 | 4.56287 | 1998 ft | 212 kts | 312° |
| 2026-05-04 15:13 | 52.15288 | 4.55098 | 1999 ft | 213 kts | 312° |
| 2026-05-04 15:13 | 52.16353 | 4.53432 | 1993 ft | 213 kts | 326° |
| 2026-05-04 15:14 | 52.18137 | 4.52810 | 1998 ft | 202 kts | 10° |
| 2026-05-04 15:14 | 52.19358 | 4.53652 | 2022 ft | 200 kts | 30° |
| 2026-05-04 15:14 | 52.20138 | 4.54438 | 2005 ft | 196 kts | 32° |
| 2026-05-04 15:14 | 52.21271 | 4.55646 | 1992 ft | 193 kts | 32° |
| 2026-05-04 15:15 | 52.22305 | 4.56862 | 1985 ft | 186 kts | 41° |
| 2026-05-04 15:15 | 52.23083 | 4.58497 | 1982 ft | 178 kts | 59° |
| 2026-05-04 15:15 | 52.23689 | 4.60214 | 1922 ft | 173 kts | 56° |
| 2026-05-04 15:16 | 52.24959 | 4.63458 | 1480 ft | 167 kts | 56° |
| 2026-05-04 15:16 | 52.25566 | 4.65046 | 1246 ft | 156 kts | 55° |
| 2026-05-04 15:16 | 52.26594 | 4.67712 | 855 ft | 136 kts | 54° |
| 2026-05-04 15:17 | 52.27053 | 4.68909 | 719 ft | 130 kts | 54° |
| 2026-05-04 15:17 | 52.28031 | 4.71430 | 368 ft | 134 kts | 55° |
| 2026-05-04 15:17 | 52.28436 | 4.72502 | 206 ft | 135 kts | 54° |
| 2026-05-04 15:18 | 52.28889 | 4.73661 | 49 ft | 133 kts | 54° |
| 2026-05-04 15:18 | 52.29377 | 4.74927 | 6 ft | 125 kts | 59° |
| 2026-05-04 15:18 | 52.29730 | 4.75850 | 4 ft | 68 kts | 58° |
| 2026-05-04 15:19 | 52.30046 | 4.76554 | 4 ft | 18 kts | 32° |
| 2026-05-04 15:19 | 52.30144 | 4.76637 | 5 ft | 13 kts | 26° |
| 2026-05-04 15:19 | 52.30215 | 4.76700 | 5 ft | 0 kts | 28° |
| 2026-05-04 15:21 | 52.30226 | 4.76709 | 5 ft | 6 kts | 28° |
| 2026-05-04 15:21 | 52.30290 | 4.76774 | 5 ft | 15 kts | 42° |
| 2026-05-04 15:21 | 52.30436 | 4.77145 | 5 ft | 22 kts | 59° |
| 2026-05-04 15:22 | 52.30518 | 4.77368 | 5 ft | 24 kts | 58° |
| 2026-05-04 15:22 | 52.30608 | 4.77555 | 5 ft | 21 kts | 31° |
| 2026-05-04 15:22 | 52.30914 | 4.77610 | 5 ft | 24 kts | 4° |
| 2026-05-04 15:23 | 52.31011 | 4.77591 | 5 ft | 12 kts | 321° |
| 2026-05-04 15:23 | 52.31054 | 4.77484 | 5 ft | 14 kts | 295° |
| 2026-05-04 15:23 | 52.31073 | 4.77315 | 5 ft | 17 kts | 273° |
| 2026-05-04 15:23 | 52.31079 | 4.77132 | 5 ft | 19 kts | 273° |
| 2026-05-04 15:24 | 52.31066 | 4.76850 | 5 ft | 6 kts | 232° |
| 2026-05-04 15:24 | 52.31020 | 4.76869 | 5 ft | 6 kts | 141° |
| 2026-05-04 15:25 | 52.30992 | 4.76908 | 5 ft | 2 kts | 139° |
| 2026-05-04 15:25 | 52.30986 | 4.76917 | 5 ft | 1 kts | 139° |
| 2026-05-04 15:25 | 52.30982 | 4.76922 | 5 ft | 1 kts | 139° |
| 2026-05-04 15:26 | 52.30977 | 4.76929 | 5 ft | 0 kts | 139° |